sensor_id;sensor_type;location;lat;lon;timestamp;P1;durP1;ratioP1;P2;durP2;ratioP2
61915;SDS011;47868;51.326;6.550;2022-12-10T00:01:05;43.47;;;29.33;;
61915;SDS011;47868;51.326;6.550;2022-12-10T00:03:32;42.70;;;27.77;;
61915;SDS011;47868;51.326;6.550;2022-12-10T00:05:59;42.47;;;29.43;;
61915;SDS011;47868;51.326;6.550;2022-12-10T00:08:26;39.70;;;27.23;;
61915;SDS011;47868;51.326;6.550;2022-12-10T00:10:52;42.93;;;28.50;;
61915;SDS011;47868;51.326;6.550;2022-12-10T00:13:17;40.80;;;29.10;;
61915;SDS011;47868;51.326;6.550;2022-12-10T00:15:43;40.07;;;29.30;;
61915;SDS011;47868;51.326;6.550;2022-12-10T00:18:10;46.97;;;30.03;;
61915;SDS011;47868;51.326;6.550;2022-12-10T00:20:36;40.73;;;28.87;;
61915;SDS011;47868;51.326;6.550;2022-12-10T00:23:02;40.80;;;28.30;;
61915;SDS011;47868;51.326;6.550;2022-12-10T00:25:29;43.33;;;28.77;;
61915;SDS011;47868;51.326;6.550;2022-12-10T00:27:57;42.40;;;28.00;;
61915;SDS011;47868;51.326;6.550;2022-12-10T00:30:22;42.83;;;28.43;;
61915;SDS011;47868;51.326;6.550;2022-12-10T00:32:48;46.20;;;28.83;;
61915;SDS011;47868;51.326;6.550;2022-12-10T00:35:14;38.33;;;26.60;;
61915;SDS011;47868;51.326;6.550;2022-12-10T00:37:39;43.47;;;28.97;;
61915;SDS011;47868;51.326;6.550;2022-12-10T00:40:05;44.10;;;27.90;;
61915;SDS011;47868;51.326;6.550;2022-12-10T00:42:31;39.63;;;28.40;;
61915;SDS011;47868;51.326;6.550;2022-12-10T00:44:57;44.50;;;28.23;;
61915;SDS011;47868;51.326;6.550;2022-12-10T00:47:22;41.87;;;26.67;;
61915;SDS011;47868;51.326;6.550;2022-12-10T00:49:50;42.23;;;27.90;;
61915;SDS011;47868;51.326;6.550;2022-12-10T00:52:15;40.90;;;27.23;;
61915;SDS011;47868;51.326;6.550;2022-12-10T00:54:41;39.50;;;27.43;;
61915;SDS011;47868;51.326;6.550;2022-12-10T00:57:09;37.50;;;26.47;;
61915;SDS011;47868;51.326;6.550;2022-12-10T00:59:35;41.63;;;27.20;;
61915;SDS011;47868;51.326;6.550;2022-12-10T01:02:03;40.23;;;28.70;;
61915;SDS011;47868;51.326;6.550;2022-12-10T01:04:29;37.00;;;26.63;;
61915;SDS011;47868;51.326;6.550;2022-12-10T01:06:55;37.43;;;26.67;;
61915;SDS011;47868;51.326;6.550;2022-12-10T01:09:27;43.80;;;28.37;;
61915;SDS011;47868;51.326;6.550;2022-12-10T01:11:54;38.90;;;27.80;;
61915;SDS011;47868;51.326;6.550;2022-12-10T01:14:22;39.67;;;27.30;;
61915;SDS011;47868;51.326;6.550;2022-12-10T01:16:51;41.80;;;27.30;;
61915;SDS011;47868;51.326;6.550;2022-12-10T01:19:19;37.80;;;26.53;;
61915;SDS011;47868;51.326;6.550;2022-12-10T01:21:51;35.50;;;25.67;;
61915;SDS011;47868;51.326;6.550;2022-12-10T01:24:21;36.97;;;26.73;;
61915;SDS011;47868;51.326;6.550;2022-12-10T01:26:47;41.90;;;28.73;;
61915;SDS011;47868;51.326;6.550;2022-12-10T01:29:13;40.90;;;25.50;;
61915;SDS011;47868;51.326;6.550;2022-12-10T01:31:41;36.63;;;26.00;;
61915;SDS011;47868;51.326;6.550;2022-12-10T01:34:07;40.23;;;27.73;;
61915;SDS011;47868;51.326;6.550;2022-12-10T01:36:38;39.07;;;26.53;;
61915;SDS011;47868;51.326;6.550;2022-12-10T01:39:07;40.60;;;26.60;;
61915;SDS011;47868;51.326;6.550;2022-12-10T01:41:35;37.57;;;25.67;;
61915;SDS011;47868;51.326;6.550;2022-12-10T01:46:30;40.13;;;26.47;;
61915;SDS011;47868;51.326;6.550;2022-12-10T01:48:58;39.27;;;26.63;;
61915;SDS011;47868;51.326;6.550;2022-12-10T01:51:27;38.40;;;26.13;;
61915;SDS011;47868;51.326;6.550;2022-12-10T01:53:54;41.43;;;26.60;;
61915;SDS011;47868;51.326;6.550;2022-12-10T01:56:20;40.97;;;27.53;;
61915;SDS011;47868;51.326;6.550;2022-12-10T01:58:47;40.43;;;26.63;;
61915;SDS011;47868;51.326;6.550;2022-12-10T02:03:57;36.07;;;26.23;;
61915;SDS011;47868;51.326;6.550;2022-12-10T02:07:15;33.93;;;24.83;;
61915;SDS011;47868;51.326;6.550;2022-12-10T02:12:17;43.23;;;27.60;;
61915;SDS011;47868;51.326;6.550;2022-12-10T02:15:04;41.90;;;27.40;;
61915;SDS011;47868;51.326;6.550;2022-12-10T02:20:06;39.93;;;27.17;;
61915;SDS011;47868;51.326;6.550;2022-12-10T02:22:51;42.43;;;27.53;;
61915;SDS011;47868;51.326;6.550;2022-12-10T02:25:20;43.73;;;27.27;;
61915;SDS011;47868;51.326;6.550;2022-12-10T02:27:58;47.37;;;28.83;;
61915;SDS011;47868;51.326;6.550;2022-12-10T02:30:58;41.30;;;28.23;;
61915;SDS011;47868;51.326;6.550;2022-12-10T02:33:27;43.90;;;27.77;;
61915;SDS011;47868;51.326;6.550;2022-12-10T02:35:56;43.43;;;27.47;;
61915;SDS011;47868;51.326;6.550;2022-12-10T02:38:32;41.90;;;27.80;;
61915;SDS011;47868;51.326;6.550;2022-12-10T02:41:01;38.93;;;27.03;;
61915;SDS011;47868;51.326;6.550;2022-12-10T02:43:30;42.10;;;27.63;;
61915;SDS011;47868;51.326;6.550;2022-12-10T02:46:01;44.10;;;28.93;;
61915;SDS011;47868;51.326;6.550;2022-12-10T02:48:30;41.57;;;28.43;;
61915;SDS011;47868;51.326;6.550;2022-12-10T02:50:57;44.53;;;27.60;;
61915;SDS011;47868;51.326;6.550;2022-12-10T02:53:23;49.73;;;28.93;;
61915;SDS011;47868;51.326;6.550;2022-12-10T02:58:27;45.63;;;28.93;;
61915;SDS011;47868;51.326;6.550;2022-12-10T03:03:34;45.53;;;28.37;;
61915;SDS011;47868;51.326;6.550;2022-12-10T03:06:14;42.30;;;29.30;;
61915;SDS011;47868;51.326;6.550;2022-12-10T03:08:59;44.40;;;28.90;;
61915;SDS011;47868;51.326;6.550;2022-12-10T03:11:28;43.50;;;28.30;;
61915;SDS011;47868;51.326;6.550;2022-12-10T03:13:57;45.07;;;29.97;;
61915;SDS011;47868;51.326;6.550;2022-12-10T03:16:24;46.03;;;29.50;;
61915;SDS011;47868;51.326;6.550;2022-12-10T03:18:55;48.73;;;31.10;;
61915;SDS011;47868;51.326;6.550;2022-12-10T03:21:25;44.60;;;29.40;;
61915;SDS011;47868;51.326;6.550;2022-12-10T03:23:53;47.77;;;30.67;;
61915;SDS011;47868;51.326;6.550;2022-12-10T03:26:19;48.80;;;29.77;;
61915;SDS011;47868;51.326;6.550;2022-12-10T03:28:49;44.53;;;29.40;;
61915;SDS011;47868;51.326;6.550;2022-12-10T03:31:17;50.27;;;31.07;;
61915;SDS011;47868;51.326;6.550;2022-12-10T03:33:45;48.57;;;30.17;;
61915;SDS011;47868;51.326;6.550;2022-12-10T03:36:12;48.43;;;31.53;;
61915;SDS011;47868;51.326;6.550;2022-12-10T03:38:39;47.17;;;30.17;;
61915;SDS011;47868;51.326;6.550;2022-12-10T03:41:06;51.70;;;32.20;;
61915;SDS011;47868;51.326;6.550;2022-12-10T03:43:32;51.97;;;29.77;;
61915;SDS011;47868;51.326;6.550;2022-12-10T03:45:58;51.00;;;31.60;;
61915;SDS011;47868;51.326;6.550;2022-12-10T03:48:23;54.67;;;32.27;;
61915;SDS011;47868;51.326;6.550;2022-12-10T03:50:49;50.43;;;30.13;;
61915;SDS011;47868;51.326;6.550;2022-12-10T03:53:14;48.53;;;31.37;;
61915;SDS011;47868;51.326;6.550;2022-12-10T03:55:40;54.87;;;34.17;;
61915;SDS011;47868;51.326;6.550;2022-12-10T03:58:06;51.83;;;33.33;;
61915;SDS011;47868;51.326;6.550;2022-12-10T04:00:31;55.00;;;33.00;;
61915;SDS011;47868;51.326;6.550;2022-12-10T04:02:57;54.90;;;34.80;;
61915;SDS011;47868;51.326;6.550;2022-12-10T04:05:23;50.27;;;32.57;;
61915;SDS011;47868;51.326;6.550;2022-12-10T04:07:48;54.53;;;31.90;;
61915;SDS011;47868;51.326;6.550;2022-12-10T04:10:14;50.93;;;32.50;;
61915;SDS011;47868;51.326;6.550;2022-12-10T04:12:40;51.10;;;31.23;;
61915;SDS011;47868;51.326;6.550;2022-12-10T04:15:05;51.07;;;33.43;;
61915;SDS011;47868;51.326;6.550;2022-12-10T04:17:50;49.13;;;31.00;;
61915;SDS011;47868;51.326;6.550;2022-12-10T04:20:17;52.17;;;33.47;;
61915;SDS011;47868;51.326;6.550;2022-12-10T04:23:01;49.97;;;32.00;;
61915;SDS011;47868;51.326;6.550;2022-12-10T04:25:45;58.00;;;33.33;;
61915;SDS011;47868;51.326;6.550;2022-12-10T04:28:29;49.83;;;33.43;;
61915;SDS011;47868;51.326;6.550;2022-12-10T04:30:55;54.93;;;33.17;;
61915;SDS011;47868;51.326;6.550;2022-12-10T04:33:21;50.73;;;32.63;;
61915;SDS011;47868;51.326;6.550;2022-12-10T04:35:46;52.37;;;33.80;;
61915;SDS011;47868;51.326;6.550;2022-12-10T04:38:12;53.87;;;34.43;;
61915;SDS011;47868;51.326;6.550;2022-12-10T04:40:37;50.40;;;31.63;;
61915;SDS011;47868;51.326;6.550;2022-12-10T04:43:03;52.77;;;33.20;;
61915;SDS011;47868;51.326;6.550;2022-12-10T04:45:28;50.83;;;31.90;;
61915;SDS011;47868;51.326;6.550;2022-12-10T04:47:54;46.57;;;30.93;;
61915;SDS011;47868;51.326;6.550;2022-12-10T04:50:20;57.03;;;32.73;;
61915;SDS011;47868;51.326;6.550;2022-12-10T04:52:46;54.27;;;33.60;;
61915;SDS011;47868;51.326;6.550;2022-12-10T04:55:11;55.23;;;34.20;;
61915;SDS011;47868;51.326;6.550;2022-12-10T04:57:37;53.83;;;33.43;;
61915;SDS011;47868;51.326;6.550;2022-12-10T05:00:02;50.10;;;31.53;;
61915;SDS011;47868;51.326;6.550;2022-12-10T05:02:28;53.37;;;34.37;;
61915;SDS011;47868;51.326;6.550;2022-12-10T05:04:54;52.73;;;33.77;;
61915;SDS011;47868;51.326;6.550;2022-12-10T05:07:19;56.13;;;33.57;;
61915;SDS011;47868;51.326;6.550;2022-12-10T05:09:45;54.23;;;33.77;;
61915;SDS011;47868;51.326;6.550;2022-12-10T05:12:10;54.30;;;33.30;;
61915;SDS011;47868;51.326;6.550;2022-12-10T05:14:36;53.20;;;32.67;;
61915;SDS011;47868;51.326;6.550;2022-12-10T05:17:02;55.30;;;33.50;;
61915;SDS011;47868;51.326;6.550;2022-12-10T05:19:27;51.60;;;33.30;;
61915;SDS011;47868;51.326;6.550;2022-12-10T05:21:53;51.50;;;32.33;;
61915;SDS011;47868;51.326;6.550;2022-12-10T05:24:38;58.53;;;33.73;;
61915;SDS011;47868;51.326;6.550;2022-12-10T05:27:03;57.03;;;34.57;;
61915;SDS011;47868;51.326;6.550;2022-12-10T05:29:29;54.60;;;34.27;;
61915;SDS011;47868;51.326;6.550;2022-12-10T05:31:55;54.77;;;33.83;;
61915;SDS011;47868;51.326;6.550;2022-12-10T05:34:21;55.47;;;34.10;;
61915;SDS011;47868;51.326;6.550;2022-12-10T05:36:47;59.23;;;35.03;;
61915;SDS011;47868;51.326;6.550;2022-12-10T05:39:12;49.33;;;32.63;;
61915;SDS011;47868;51.326;6.550;2022-12-10T05:41:38;52.00;;;32.90;;
61915;SDS011;47868;51.326;6.550;2022-12-10T05:44:05;55.30;;;33.93;;
61915;SDS011;47868;51.326;6.550;2022-12-10T05:46:31;55.00;;;33.93;;
61915;SDS011;47868;51.326;6.550;2022-12-10T05:48:59;57.43;;;33.57;;
61915;SDS011;47868;51.326;6.550;2022-12-10T05:51:27;52.17;;;33.50;;
61915;SDS011;47868;51.326;6.550;2022-12-10T05:53:54;57.47;;;35.23;;
61915;SDS011;47868;51.326;6.550;2022-12-10T05:56:22;56.90;;;34.63;;
61915;SDS011;47868;51.326;6.550;2022-12-10T05:58:50;59.50;;;34.63;;
61915;SDS011;47868;51.326;6.550;2022-12-10T06:01:18;56.67;;;34.40;;
61915;SDS011;47868;51.326;6.550;2022-12-10T06:03:45;64.33;;;35.10;;
61915;SDS011;47868;51.326;6.550;2022-12-10T06:06:11;56.83;;;33.07;;
61915;SDS011;47868;51.326;6.550;2022-12-10T06:08:38;51.90;;;33.00;;
61915;SDS011;47868;51.326;6.550;2022-12-10T06:11:05;53.70;;;34.17;;
61915;SDS011;47868;51.326;6.550;2022-12-10T06:13:32;59.27;;;34.50;;
61915;SDS011;47868;51.326;6.550;2022-12-10T06:15:58;61.70;;;35.03;;
61915;SDS011;47868;51.326;6.550;2022-12-10T06:18:24;53.70;;;33.33;;
61915;SDS011;47868;51.326;6.550;2022-12-10T06:20:49;61.20;;;35.47;;
61915;SDS011;47868;51.326;6.550;2022-12-10T06:23:15;59.10;;;35.33;;
61915;SDS011;47868;51.326;6.550;2022-12-10T06:25:41;58.40;;;35.40;;
61915;SDS011;47868;51.326;6.550;2022-12-10T06:28:07;60.53;;;36.10;;
61915;SDS011;47868;51.326;6.550;2022-12-10T06:30:33;56.67;;;34.73;;
61915;SDS011;47868;51.326;6.550;2022-12-10T06:32:59;61.73;;;36.20;;
61915;SDS011;47868;51.326;6.550;2022-12-10T06:35:26;60.90;;;34.23;;
61915;SDS011;47868;51.326;6.550;2022-12-10T06:37:52;58.27;;;34.83;;
61915;SDS011;47868;51.326;6.550;2022-12-10T06:40:18;55.97;;;36.17;;
61915;SDS011;47868;51.326;6.550;2022-12-10T06:42:43;58.23;;;34.90;;
61915;SDS011;47868;51.326;6.550;2022-12-10T06:45:09;58.60;;;36.73;;
61915;SDS011;47868;51.326;6.550;2022-12-10T06:47:36;58.33;;;35.53;;
61915;SDS011;47868;51.326;6.550;2022-12-10T06:50:02;59.53;;;35.07;;
61915;SDS011;47868;51.326;6.550;2022-12-10T06:52:28;59.57;;;35.40;;
61915;SDS011;47868;51.326;6.550;2022-12-10T06:54:54;60.87;;;34.83;;
61915;SDS011;47868;51.326;6.550;2022-12-10T06:57:20;58.63;;;34.53;;
61915;SDS011;47868;51.326;6.550;2022-12-10T06:59:47;69.17;;;37.73;;
61915;SDS011;47868;51.326;6.550;2022-12-10T07:02:13;68.23;;;37.87;;
61915;SDS011;47868;51.326;6.550;2022-12-10T07:04:39;57.40;;;36.03;;
61915;SDS011;47868;51.326;6.550;2022-12-10T07:07:07;62.73;;;37.20;;
61915;SDS011;47868;51.326;6.550;2022-12-10T07:09:35;57.47;;;36.03;;
61915;SDS011;47868;51.326;6.550;2022-12-10T07:12:00;63.97;;;38.97;;
61915;SDS011;47868;51.326;6.550;2022-12-10T07:14:27;69.30;;;39.77;;
61915;SDS011;47868;51.326;6.550;2022-12-10T07:16:56;63.70;;;38.67;;
61915;SDS011;47868;51.326;6.550;2022-12-10T07:19:24;68.93;;;38.50;;
61915;SDS011;47868;51.326;6.550;2022-12-10T07:21:52;68.97;;;39.90;;
61915;SDS011;47868;51.326;6.550;2022-12-10T07:24:18;66.17;;;37.83;;
61915;SDS011;47868;51.326;6.550;2022-12-10T07:26:44;63.63;;;39.57;;
61915;SDS011;47868;51.326;6.550;2022-12-10T07:29:20;64.50;;;38.10;;
61915;SDS011;47868;51.326;6.550;2022-12-10T07:31:47;68.37;;;40.83;;
61915;SDS011;47868;51.326;6.550;2022-12-10T07:34:13;79.83;;;41.13;;
61915;SDS011;47868;51.326;6.550;2022-12-10T07:36:40;70.57;;;40.27;;
61915;SDS011;47868;51.326;6.550;2022-12-10T07:39:06;68.53;;;38.80;;
61915;SDS011;47868;51.326;6.550;2022-12-10T07:41:33;69.87;;;40.17;;
61915;SDS011;47868;51.326;6.550;2022-12-10T07:44:00;66.53;;;39.40;;
61915;SDS011;47868;51.326;6.550;2022-12-10T07:46:28;65.77;;;39.23;;
61915;SDS011;47868;51.326;6.550;2022-12-10T07:48:55;65.80;;;39.27;;
61915;SDS011;47868;51.326;6.550;2022-12-10T07:51:22;63.73;;;38.53;;
61915;SDS011;47868;51.326;6.550;2022-12-10T07:53:48;66.20;;;40.73;;
61915;SDS011;47868;51.326;6.550;2022-12-10T07:56:17;64.97;;;37.87;;
61915;SDS011;47868;51.326;6.550;2022-12-10T07:58:43;65.70;;;37.87;;
61915;SDS011;47868;51.326;6.550;2022-12-10T08:01:14;64.50;;;34.90;;
61915;SDS011;47868;51.326;6.550;2022-12-10T08:03:41;69.20;;;37.90;;
61915;SDS011;47868;51.326;6.550;2022-12-10T08:06:08;65.10;;;38.37;;
61915;SDS011;47868;51.326;6.550;2022-12-10T08:08:36;69.47;;;40.03;;
61915;SDS011;47868;51.326;6.550;2022-12-10T08:11:03;66.90;;;39.67;;
61915;SDS011;47868;51.326;6.550;2022-12-10T08:13:30;66.57;;;39.37;;
61915;SDS011;47868;51.326;6.550;2022-12-10T08:16:02;64.80;;;37.17;;
61915;SDS011;47868;51.326;6.550;2022-12-10T08:18:53;65.33;;;36.20;;
61915;SDS011;47868;51.326;6.550;2022-12-10T08:21:22;69.33;;;37.10;;
61915;SDS011;47868;51.326;6.550;2022-12-10T08:23:48;60.53;;;36.83;;
61915;SDS011;47868;51.326;6.550;2022-12-10T08:26:18;63.03;;;37.70;;
61915;SDS011;47868;51.326;6.550;2022-12-10T08:28:46;61.17;;;34.87;;
61915;SDS011;47868;51.326;6.550;2022-12-10T08:31:13;50.53;;;31.57;;
61915;SDS011;47868;51.326;6.550;2022-12-10T08:33:39;46.30;;;29.20;;
61915;SDS011;47868;51.326;6.550;2022-12-10T08:36:08;49.90;;;29.67;;
61915;SDS011;47868;51.326;6.550;2022-12-10T08:38:37;48.03;;;28.80;;
61915;SDS011;47868;51.326;6.550;2022-12-10T08:41:11;49.60;;;28.57;;
61915;SDS011;47868;51.326;6.550;2022-12-10T08:43:39;45.23;;;26.70;;
61915;SDS011;47868;51.326;6.550;2022-12-10T08:46:07;42.93;;;26.10;;
61915;SDS011;47868;51.326;6.550;2022-12-10T08:48:34;40.23;;;25.57;;
61915;SDS011;47868;51.326;6.550;2022-12-10T08:51:01;41.33;;;25.33;;
61915;SDS011;47868;51.326;6.550;2022-12-10T08:53:29;40.90;;;26.50;;
61915;SDS011;47868;51.326;6.550;2022-12-10T08:55:57;40.20;;;24.30;;
61915;SDS011;47868;51.326;6.550;2022-12-10T08:58:26;38.17;;;24.13;;
61915;SDS011;47868;51.326;6.550;2022-12-10T09:00:53;38.30;;;25.67;;
61915;SDS011;47868;51.326;6.550;2022-12-10T09:03:20;44.87;;;26.13;;
61915;SDS011;47868;51.326;6.550;2022-12-10T09:05:46;43.70;;;26.33;;
61915;SDS011;47868;51.326;6.550;2022-12-10T09:08:12;42.53;;;27.00;;
61915;SDS011;47868;51.326;6.550;2022-12-10T09:10:39;44.90;;;27.73;;
61915;SDS011;47868;51.326;6.550;2022-12-10T09:13:06;40.00;;;26.10;;
61915;SDS011;47868;51.326;6.550;2022-12-10T09:15:34;38.40;;;25.43;;
61915;SDS011;47868;51.326;6.550;2022-12-10T09:18:01;38.90;;;26.90;;
61915;SDS011;47868;51.326;6.550;2022-12-10T09:20:29;41.40;;;26.13;;
61915;SDS011;47868;51.326;6.550;2022-12-10T09:22:57;43.50;;;26.73;;
61915;SDS011;47868;51.326;6.550;2022-12-10T09:25:23;40.63;;;26.77;;
61915;SDS011;47868;51.326;6.550;2022-12-10T09:27:48;42.97;;;26.57;;
61915;SDS011;47868;51.326;6.550;2022-12-10T09:30:14;38.60;;;25.07;;
61915;SDS011;47868;51.326;6.550;2022-12-10T09:32:40;37.57;;;25.63;;
61915;SDS011;47868;51.326;6.550;2022-12-10T09:35:06;39.47;;;24.90;;
61915;SDS011;47868;51.326;6.550;2022-12-10T09:37:32;41.60;;;26.90;;
61915;SDS011;47868;51.326;6.550;2022-12-10T09:39:58;44.43;;;28.33;;
61915;SDS011;47868;51.326;6.550;2022-12-10T09:42:30;41.90;;;26.67;;
61915;SDS011;47868;51.326;6.550;2022-12-10T09:50:48;43.53;;;27.17;;
61915;SDS011;47868;51.326;6.550;2022-12-10T09:53:27;40.37;;;25.33;;
61915;SDS011;47868;51.326;6.550;2022-12-10T09:55:54;46.90;;;28.20;;
61915;SDS011;47868;51.326;6.550;2022-12-10T09:58:23;43.90;;;26.10;;
61915;SDS011;47868;51.326;6.550;2022-12-10T10:01:02;40.30;;;25.87;;
61915;SDS011;47868;51.326;6.550;2022-12-10T10:03:48;40.50;;;23.57;;
61915;SDS011;47868;51.326;6.550;2022-12-10T10:06:15;34.03;;;21.83;;
61915;SDS011;47868;51.326;6.550;2022-12-10T10:08:42;34.93;;;24.00;;
61915;SDS011;47868;51.326;6.550;2022-12-10T10:11:14;40.90;;;25.83;;
61915;SDS011;47868;51.326;6.550;2022-12-10T10:13:47;45.80;;;29.57;;
61915;SDS011;47868;51.326;6.550;2022-12-10T10:18:52;46.20;;;29.13;;
61915;SDS011;47868;51.326;6.550;2022-12-10T10:21:23;50.70;;;31.70;;
61915;SDS011;47868;51.326;6.550;2022-12-10T10:24:03;50.03;;;32.80;;
61915;SDS011;47868;51.326;6.550;2022-12-10T10:26:31;57.13;;;33.67;;
61915;SDS011;47868;51.326;6.550;2022-12-10T10:29:01;52.87;;;31.60;;
61915;SDS011;47868;51.326;6.550;2022-12-10T10:31:31;56.97;;;34.03;;
61915;SDS011;47868;51.326;6.550;2022-12-10T10:34:02;59.07;;;33.97;;
61915;SDS011;47868;51.326;6.550;2022-12-10T10:36:31;55.57;;;34.40;;
61915;SDS011;47868;51.326;6.550;2022-12-10T10:39:06;58.77;;;34.00;;
61915;SDS011;47868;51.326;6.550;2022-12-10T10:41:38;53.53;;;32.10;;
61915;SDS011;47868;51.326;6.550;2022-12-10T10:44:04;49.87;;;30.27;;
61915;SDS011;47868;51.326;6.550;2022-12-10T10:46:31;54.03;;;33.53;;
61915;SDS011;47868;51.326;6.550;2022-12-10T10:51:47;53.47;;;29.37;;
61915;SDS011;47868;51.326;6.550;2022-12-10T10:54:33;52.70;;;31.93;;
61915;SDS011;47868;51.326;6.550;2022-12-10T10:57:02;55.90;;;32.70;;
61915;SDS011;47868;51.326;6.550;2022-12-10T10:59:31;64.33;;;32.93;;
61915;SDS011;47868;51.326;6.550;2022-12-10T11:02:04;55.13;;;31.53;;
61915;SDS011;47868;51.326;6.550;2022-12-10T11:04:57;54.83;;;30.90;;
61915;SDS011;47868;51.326;6.550;2022-12-10T11:09:55;52.90;;;31.40;;
61915;SDS011;47868;51.326;6.550;2022-12-10T11:12:30;54.80;;;32.27;;
61915;SDS011;47868;51.326;6.550;2022-12-10T11:14:58;50.97;;;30.23;;
61915;SDS011;47868;51.326;6.550;2022-12-10T11:17:25;54.33;;;31.83;;
61915;SDS011;47868;51.326;6.550;2022-12-10T11:20:15;53.37;;;31.93;;
61915;SDS011;47868;51.326;6.550;2022-12-10T11:22:59;48.07;;;29.07;;
61915;SDS011;47868;51.326;6.550;2022-12-10T11:25:30;52.07;;;31.27;;
61915;SDS011;47868;51.326;6.550;2022-12-10T11:28:23;49.97;;;29.47;;
61915;SDS011;47868;51.326;6.550;2022-12-10T11:33:33;50.33;;;30.60;;
61915;SDS011;47868;51.326;6.550;2022-12-10T11:41:55;49.77;;;30.00;;
61915;SDS011;47868;51.326;6.550;2022-12-10T11:44:30;48.70;;;29.17;;
61915;SDS011;47868;51.326;6.550;2022-12-10T12:09:19;58.73;;;33.23;;
61915;SDS011;47868;51.326;6.550;2022-12-10T12:11:57;56.40;;;32.70;;
61915;SDS011;47868;51.326;6.550;2022-12-10T12:14:28;49.77;;;32.63;;
61915;SDS011;47868;51.326;6.550;2022-12-10T12:17:00;54.83;;;32.50;;
61915;SDS011;47868;51.326;6.550;2022-12-10T12:22:09;52.93;;;31.07;;
61915;SDS011;47868;51.326;6.550;2022-12-10T12:24:40;52.43;;;31.80;;
61915;SDS011;47868;51.326;6.550;2022-12-10T12:27:18;54.63;;;32.23;;
61915;SDS011;47868;51.326;6.550;2022-12-10T12:29:49;48.30;;;30.50;;
61915;SDS011;47868;51.326;6.550;2022-12-10T12:32:24;53.10;;;30.93;;
61915;SDS011;47868;51.326;6.550;2022-12-10T12:35:09;54.67;;;32.53;;
61915;SDS011;47868;51.326;6.550;2022-12-10T12:37:55;50.63;;;31.73;;
61915;SDS011;47868;51.326;6.550;2022-12-10T12:40:29;53.77;;;31.40;;
61915;SDS011;47868;51.326;6.550;2022-12-10T12:43:00;55.83;;;32.57;;
61915;SDS011;47868;51.326;6.550;2022-12-10T12:53:31;50.07;;;30.33;;
61915;SDS011;47868;51.326;6.550;2022-12-10T12:56:07;51.77;;;33.23;;
61915;SDS011;47868;51.326;6.550;2022-12-10T13:04:16;52.43;;;32.00;;
61915;SDS011;47868;51.326;6.550;2022-12-10T13:06:42;48.73;;;31.77;;
61915;SDS011;47868;51.326;6.550;2022-12-10T13:09:44;50.60;;;30.70;;
61915;SDS011;47868;51.326;6.550;2022-12-10T13:15:14;53.00;;;32.47;;
61915;SDS011;47868;51.326;6.550;2022-12-10T13:18:18;50.73;;;30.73;;
61915;SDS011;47868;51.326;6.550;2022-12-10T13:24:09;52.80;;;32.67;;
61915;SDS011;47868;51.326;6.550;2022-12-10T13:26:40;49.13;;;30.97;;
61915;SDS011;47868;51.326;6.550;2022-12-10T13:29:26;51.07;;;31.63;;
61915;SDS011;47868;51.326;6.550;2022-12-10T13:32:02;52.50;;;31.60;;
61915;SDS011;47868;51.326;6.550;2022-12-10T13:34:30;56.67;;;32.47;;
61915;SDS011;47868;51.326;6.550;2022-12-10T13:40:00;57.90;;;33.93;;
61915;SDS011;47868;51.326;6.550;2022-12-10T13:42:50;55.57;;;33.00;;
61915;SDS011;47868;51.326;6.550;2022-12-10T13:48:57;59.53;;;34.73;;
61915;SDS011;47868;51.326;6.550;2022-12-10T13:51:42;56.97;;;33.10;;
61915;SDS011;47868;51.326;6.550;2022-12-10T13:57:50;55.17;;;33.17;;
61915;SDS011;47868;51.326;6.550;2022-12-10T14:00:29;57.57;;;34.43;;
61915;SDS011;47868;51.326;6.550;2022-12-10T14:09:10;69.73;;;35.70;;
61915;SDS011;47868;51.326;6.550;2022-12-10T14:11:46;61.63;;;35.63;;
61915;SDS011;47868;51.326;6.550;2022-12-10T14:14:38;62.33;;;35.13;;
61915;SDS011;47868;51.326;6.550;2022-12-10T14:17:04;68.37;;;37.47;;
61915;SDS011;47868;51.326;6.550;2022-12-10T14:19:34;68.57;;;38.10;;
61915;SDS011;47868;51.326;6.550;2022-12-10T14:22:05;66.77;;;36.80;;
61915;SDS011;47868;51.326;6.550;2022-12-10T14:24:35;64.80;;;38.57;;
61915;SDS011;47868;51.326;6.550;2022-12-10T14:29:37;61.03;;;36.43;;
61915;SDS011;47868;51.326;6.550;2022-12-10T14:32:03;61.90;;;36.70;;
61915;SDS011;47868;51.326;6.550;2022-12-10T14:34:32;67.50;;;37.83;;
61915;SDS011;47868;51.326;6.550;2022-12-10T14:37:01;64.87;;;36.23;;
61915;SDS011;47868;51.326;6.550;2022-12-10T14:39:31;68.53;;;35.53;;
61915;SDS011;47868;51.326;6.550;2022-12-10T14:41:59;59.07;;;35.60;;
61915;SDS011;47868;51.326;6.550;2022-12-10T14:44:27;66.00;;;37.37;;
61915;SDS011;47868;51.326;6.550;2022-12-10T14:47:05;64.90;;;37.97;;
61915;SDS011;47868;51.326;6.550;2022-12-10T14:49:38;63.60;;;37.20;;
61915;SDS011;47868;51.326;6.550;2022-12-10T14:52:16;67.13;;;36.80;;
61915;SDS011;47868;51.326;6.550;2022-12-10T14:54:43;63.47;;;35.70;;
61915;SDS011;47868;51.326;6.550;2022-12-10T14:57:18;62.10;;;35.93;;
61915;SDS011;47868;51.326;6.550;2022-12-10T15:02:29;71.97;;;36.90;;
61915;SDS011;47868;51.326;6.550;2022-12-10T15:04:56;67.83;;;36.00;;
61915;SDS011;47868;51.326;6.550;2022-12-10T15:07:26;65.00;;;37.03;;
61915;SDS011;47868;51.326;6.550;2022-12-10T15:09:56;67.50;;;37.27;;
61915;SDS011;47868;51.326;6.550;2022-12-10T15:12:36;67.17;;;37.20;;
61915;SDS011;47868;51.326;6.550;2022-12-10T15:15:56;74.80;;;39.13;;
61915;SDS011;47868;51.326;6.550;2022-12-10T15:18:02;63.73;;;37.17;;
61915;SDS011;47868;51.326;6.550;2022-12-10T15:28:27;59.60;;;37.40;;
61915;SDS011;47868;51.326;6.550;2022-12-10T15:31:08;63.53;;;37.70;;
61915;SDS011;47868;51.326;6.550;2022-12-10T15:33:40;60.97;;;37.40;;
61915;SDS011;47868;51.326;6.550;2022-12-10T15:36:16;59.03;;;35.93;;
61915;SDS011;47868;51.326;6.550;2022-12-10T15:38:44;59.03;;;35.93;;
61915;SDS011;47868;51.326;6.550;2022-12-10T15:41:22;71.77;;;37.90;;
61915;SDS011;47868;51.326;6.550;2022-12-10T15:43:53;60.10;;;35.90;;
61915;SDS011;47868;51.326;6.550;2022-12-10T15:46:24;64.47;;;37.73;;
61915;SDS011;47868;51.326;6.550;2022-12-10T15:48:53;62.73;;;38.93;;
61915;SDS011;47868;51.326;6.550;2022-12-10T15:51:22;64.37;;;38.80;;
61915;SDS011;47868;51.326;6.550;2022-12-10T15:53:51;62.10;;;37.57;;
61915;SDS011;47868;51.326;6.550;2022-12-10T15:56:19;65.67;;;37.53;;
61915;SDS011;47868;51.326;6.550;2022-12-10T15:58:47;73.80;;;40.33;;
61915;SDS011;47868;51.326;6.550;2022-12-10T16:01:15;61.47;;;37.33;;
61915;SDS011;47868;51.326;6.550;2022-12-10T16:03:43;62.83;;;35.77;;
61915;SDS011;47868;51.326;6.550;2022-12-10T16:06:12;57.23;;;34.50;;
61915;SDS011;47868;51.326;6.550;2022-12-10T16:08:40;62.50;;;35.77;;
61915;SDS011;47868;51.326;6.550;2022-12-10T16:11:14;55.63;;;33.50;;
61915;SDS011;47868;51.326;6.550;2022-12-10T16:13:44;60.00;;;36.23;;
61915;SDS011;47868;51.326;6.550;2022-12-10T16:16:14;60.37;;;34.60;;
61915;SDS011;47868;51.326;6.550;2022-12-10T16:18:42;59.60;;;36.13;;
61915;SDS011;47868;51.326;6.550;2022-12-10T16:21:11;60.17;;;36.57;;
61915;SDS011;47868;51.326;6.550;2022-12-10T16:23:38;60.37;;;36.43;;
61915;SDS011;47868;51.326;6.550;2022-12-10T16:26:10;64.10;;;34.93;;
61915;SDS011;47868;51.326;6.550;2022-12-10T16:28:38;59.83;;;36.57;;